Flight Track Log - Related Links

Times and Time Zones

All times are in EDT time to prevent confusion due to time zone crossing. See the CCA1204 flight status page for this flight to view local times or setup timezone preferences in your user account.

Time Position Orientation Groundspeed Altitude Reporting Facility
EDT Latitude Longitude Course Direction KTS MPH feet Rate Location/Type
Sat 10:39:00 PM 34.6943 109.0588 46° Northeast  Level Estimated
Sat 10:40:00 PM 34.7560 109.1359 46° Northeast  Level Estimated
Sat 10:41:00 PM 34.8176 109.2131 46° Northeast  Level Estimated
Sat 10:42:00 PM 34.8792 109.2904 46° Northeast  Level Estimated
Sat 10:43:00 PM 34.9407 109.3679 46° Northeast  Level Estimated
Sat 10:44:00 PM 35.0022 109.4454 46° Northeast  Level Estimated
Sat 10:45:00 PM 35.0636 109.5231 46° Northeast  Level Estimated
Sat 10:46:00 PM 35.1250 109.6009 46° Northeast  Level Estimated
Sat 10:47:00 PM 35.1863 109.6788 46° Northeast  Level Estimated
Sat 10:48:00 PM 35.2476 109.7568 46° Northeast  Level Estimated
Sat 10:49:00 PM 35.3088 109.8350 46° Northeast  Level Estimated
Sat 10:50:00 PM 35.3700 109.9132 46° Northeast  Level Estimated
Sat 10:51:00 PM 35.4311 109.9916 46° Northeast  Level Estimated
Sat 10:52:00 PM 35.4922 110.0701 46° Northeast  Level Estimated
Sat 10:53:00 PM 35.5532 110.1487 46° Northeast  Level Estimated
Sat 10:54:00 PM 35.6142 110.2275 46° Northeast  Level Estimated
Sat 10:55:00 PM 35.6751 110.3063 46° Northeast  Level Estimated
Sat 10:56:00 PM 35.7360 110.3853 46° Northeast  Level Estimated
Sat 10:57:00 PM 35.7968 110.4644 47° Northeast  Level Estimated
Sat 10:58:00 PM 35.8576 110.5436 47° Northeast  Level Estimated
Sat 10:59:00 PM 35.9183 110.6230 47° Northeast  Level Estimated
Sat 11:00:00 PM 35.9789 110.7024 47° Northeast  Level Estimated
Sat 11:01:00 PM 36.0396 110.7820 47° Northeast  Level Estimated
Sat 11:02:00 PM 36.1001 110.8617 47° Northeast  Level Estimated
Sat 11:03:00 PM 36.1606 110.9416 47° Northeast  Level Estimated
Sat 11:04:00 PM 36.2211 111.0215 47° Northeast  Level Estimated
Sat 11:05:00 PM 36.2815 111.1016 47° Northeast  Level Estimated
Sat 11:06:00 PM 36.3418 111.1818 47° Northeast  Level Estimated
Sat 11:07:00 PM 36.4021 111.2621 47° Northeast  Level Estimated
Sat 11:08:00 PM 36.4623 111.3426 47° Northeast  Level Estimated
Sat 11:09:00 PM 36.5225 111.4231 47° Northeast  Level Estimated
Sat 11:10:00 PM 36.5826 111.5039 47° Northeast  Level Estimated
Sat 11:11:00 PM 36.6427 111.5847 47° Northeast  Level Estimated
Sat 11:12:00 PM 36.7027 111.6656 47° Northeast  Level Estimated
Sat 11:13:00 PM 36.7627 111.7467 47° Northeast  Level Estimated
Sat 11:14:00 PM 36.8226 111.8279 47° Northeast  Level Estimated
Sat 11:15:00 PM 36.8825 111.9092 47° Northeast  Level Estimated
Sat 11:16:00 PM 36.9422 111.9907 47° Northeast  Level Estimated
Sat 11:17:00 PM 37.0020 112.0723 47° Northeast  Level Estimated
Sat 11:18:00 PM 37.0617 112.1540 48° Northeast  Level Estimated
Sat 11:19:00 PM 37.1213 112.2359 48° Northeast  Level Estimated
Sat 11:20:00 PM 37.1809 112.3178 48° Northeast  Level Estimated
Sat 11:21:00 PM 37.2404 112.3999 48° Northeast  Level Estimated
Sat 11:22:00 PM 37.2999 112.4822 48° Northeast  Level Estimated
Sat 11:23:00 PM 37.3593 112.5645 48° Northeast  Level Estimated
Sat 11:24:00 PM 37.4186 112.6470 48° Northeast  Level Estimated
Sat 11:25:00 PM 37.4779 112.7296 48° Northeast  Level Estimated
Sat 11:26:00 PM 37.5371 112.8124 48° Northeast  Level Estimated
Sat 11:27:00 PM 37.5963 112.8953 48° Northeast  Level Estimated
Sat 11:28:00 PM 37.6554 112.9783 48° Northeast  Level Estimated
Sat 11:29:00 PM 37.7145 113.0615 48° Northeast  Level Estimated
Sat 11:30:00 PM 37.7735 113.1447 48° Northeast  Level Estimated
Sat 11:31:00 PM 37.8324 113.2282 48° Northeast  Level Estimated
Sat 11:32:00 PM 37.8913 113.3117 48° Northeast  Level Estimated
Sat 11:33:00 PM 37.9501 113.3954 48° Northeast  Level Estimated
Sat 11:34:00 PM 38.0089 113.4792 48° Northeast  Level Estimated
Sat 11:35:00 PM 38.0676 113.5632 48° Northeast  Level Estimated
Sat 11:36:00 PM 38.1262 113.6472 48° Northeast  Level Estimated
Sat 11:37:00 PM 38.1848 113.7315 48° Northeast  Level Estimated
Sat 11:38:00 PM 38.2433 113.8158 49° Northeast  Level Estimated
Sat 11:39:00 PM 38.3018 113.9003 49° Northeast  Level Estimated
Sat 11:40:00 PM 38.3602 113.9849 49° Northeast  Level Estimated
Sat 11:41:00 PM 38.4185 114.0697 49° Northeast  Level Estimated
Sat 11:42:00 PM 38.4768 114.1546 49° Northeast  Level Estimated
Sat 11:43:00 PM 38.5350 114.2397 49° Northeast  Level Estimated
Sat 11:44:00 PM 38.5932 114.3248 49° Northeast  Level Estimated
Sat 11:45:00 PM 38.6513 114.4102 49° Northeast  Level Estimated
Sat 11:46:00 PM 38.7093 114.4956 49° Northeast  Level Estimated
Sat 11:47:00 PM 38.7673 114.5812 49° Northeast  Level Estimated
Sat 11:48:00 PM 38.8252 114.6669 49° Northeast  Level Estimated
Sat 11:49:00 PM 38.8830 114.7528 49° Northeast  Level Estimated
Sat 11:50:00 PM 38.9408 114.8388 49° Northeast  Level Estimated
Sat 11:51:00 PM 38.9986 114.9250 49° Northeast  Level Estimated
Sat 11:52:00 PM 39.0562 115.0113 49° Northeast  Level Estimated
Sat 11:53:00 PM 39.1138 115.0977 49° Northeast  Level Estimated
Sat 11:54:00 PM 39.1713 115.1842 49° Northeast  Level Estimated
Sat 11:55:00 PM 39.2288 115.2710 49° Northeast  Level Estimated
Sat 11:56:00 PM 39.2862 115.3578 49° Northeast  Level Estimated
Sat 11:57:00 PM 39.3435 115.4448 50° Northeast  Level Estimated
Sat 11:58:00 PM 39.4008 115.5320 50° Northeast  Level Estimated
Sat 11:59:00 PM 39.4580 115.6193 50° Northeast  Level Estimated
Sun 12:00:00 AM 39.5151 115.7067 50° Northeast  Level Estimated
Sun 12:01:00 AM 39.5722 115.7943 50° Northeast  Level Estimated
Sun 12:02:00 AM 39.6292 115.8820 50° Northeast  Level Estimated

Login

Don't have an account? Register now (free) for customized features, flight alerts, and more!